DAL1876 MMSD-KLAX
Flight info
| Callsign | DAL1876 |
|---|---|
| Flight time | 2h 12m |
| Altitude | 34000 |
| Route | ANEGO1A ANEGO UL312 TAGMO UT50 ASUTA DCT AMMOR OLAAA2 |
| Aircraft | B739/M-SDE2E3FGHIRWXY/LB1 |
Departure
| Time | 2026-04-18 05:41 |
|---|---|
| Airport | Los Cabos International Airport (MMSD) |
Arrival
| Time | 2026-04-18 07:53 |
|---|---|
| Airport | Los Angeles International Airport (KLAX) |
| Time | Latitude | Longitude | Altitude | Speed | Heading |
|---|---|---|---|---|---|
| 2026-04-18 05:16 | 23.15821 | -109.71797 | 366 ft | 0 kts | 84° |
| 2026-04-18 05:29 | 23.15821 | -109.71800 | 363 ft | 2 kts | 84° |
| 2026-04-18 05:29 | 23.15819 | -109.71817 | 364 ft | 2 kts | 84° |
| 2026-04-18 05:29 | 23.15818 | -109.71835 | 364 ft | 2 kts | 84° |
| 2026-04-18 05:30 | 23.15816 | -109.71852 | 364 ft | 2 kts | 68° |
| 2026-04-18 05:30 | 23.15807 | -109.71865 | 365 ft | 1 kts | 1° |
| 2026-04-18 05:30 | 23.15801 | -109.71865 | 365 ft | 0 kts | 349° |
| 2026-04-18 05:32 | 23.15807 | -109.71864 | 365 ft | 3 kts | 5° |
| 2026-04-18 05:33 | 23.15833 | -109.71861 | 368 ft | 4 kts | 3° |
| 2026-04-18 05:33 | 23.15860 | -109.71861 | 364 ft | 4 kts | 360° |
| 2026-04-18 05:33 | 23.15885 | -109.71862 | 364 ft | 4 kts | 353° |
| 2026-04-18 05:33 | 23.15911 | -109.71867 | 367 ft | 4 kts | 352° |
| 2026-04-18 05:34 | 23.15936 | -109.71871 | 366 ft | 4 kts | 354° |
| 2026-04-18 05:34 | 23.15966 | -109.71873 | 366 ft | 6 kts | 356° |
| 2026-04-18 05:34 | 23.16026 | -109.71880 | 369 ft | 9 kts | 353° |
| 2026-04-18 05:34 | 23.16086 | -109.71885 | 369 ft | 5 kts | 355° |
| 2026-04-18 05:35 | 23.16121 | -109.71897 | 369 ft | 5 kts | 328° |
| 2026-04-18 05:35 | 23.16137 | -109.71930 | 369 ft | 5 kts | 274° |
| 2026-04-18 05:35 | 23.16148 | -109.71966 | 374 ft | 5 kts | 316° |
| 2026-04-18 05:35 | 23.16188 | -109.71981 | 371 ft | 7 kts | 352° |
| 2026-04-18 05:36 | 23.16268 | -109.71990 | 375 ft | 13 kts | 354° |
| 2026-04-18 05:36 | 23.16361 | -109.72001 | 381 ft | 13 kts | 354° |
| 2026-04-18 05:36 | 23.16450 | -109.72011 | 386 ft | 13 kts | 355° |
| 2026-04-18 05:36 | 23.16537 | -109.72025 | 389 ft | 12 kts | 335° |
| 2026-04-18 05:37 | 23.16557 | -109.72108 | 390 ft | 12 kts | 264° |
| 2026-04-18 05:37 | 23.16545 | -109.72197 | 391 ft | 12 kts | 249° |
| 2026-04-18 05:37 | 23.16508 | -109.72220 | 390 ft | 0 kts | 172° |
| 2026-04-18 05:40 | 23.16507 | -109.72220 | 390 ft | 0 kts | 172° |
| 2026-04-18 05:40 | 23.16491 | -109.72218 | 390 ft | 18 kts | 173° |
| 2026-04-18 05:41 | 23.16113 | -109.72175 | 381 ft | 90 kts | 174° |
| 2026-04-18 05:41 | 23.15277 | -109.72081 | 357 ft | 149 kts | 174° |
| 2026-04-18 05:41 | 23.14124 | -109.71937 | 523 ft | 179 kts | 172° |
| 2026-04-18 05:41 | 23.12868 | -109.71774 | 1065 ft | 191 kts | 171° |
| 2026-04-18 05:42 | 23.11527 | -109.71592 | 1725 ft | 195 kts | 174° |
| 2026-04-18 05:42 | 23.10145 | -109.71447 | 2211 ft | 208 kts | 174° |
| 2026-04-18 05:42 | 23.08637 | -109.71278 | 2363 ft | 227 kts | 174° |
| 2026-04-18 05:42 | 23.07014 | -109.71105 | 2645 ft | 240 kts | 174° |
| 2026-04-18 05:43 | 23.05315 | -109.70933 | 2920 ft | 255 kts | 177° |
| 2026-04-18 05:43 | 23.03526 | -109.71262 | 3227 ft | 270 kts | 208° |
| 2026-04-18 05:43 | 23.02175 | -109.72642 | 3876 ft | 270 kts | 240° |
| 2026-04-18 05:43 | 23.01623 | -109.74582 | 4588 ft | 272 kts | 266° |
| 2026-04-18 05:44 | 23.01939 | -109.76612 | 5186 ft | 277 kts | 292° |
| 2026-04-18 05:44 | 23.02953 | -109.78384 | 5883 ft | 278 kts | 308° |
| 2026-04-18 05:44 | 23.04236 | -109.79959 | 6546 ft | 279 kts | 310° |
| 2026-04-18 05:44 | 23.05555 | -109.81510 | 7153 ft | 280 kts | 310° |
| 2026-04-18 05:45 | 23.06874 | -109.83080 | 7715 ft | 283 kts | 309° |
| 2026-04-18 05:45 | 23.08197 | -109.84683 | 8296 ft | 286 kts | 308° |
| 2026-04-18 05:45 | 23.09512 | -109.86311 | 8922 ft | 288 kts | 307° |
| 2026-04-18 05:45 | 23.10823 | -109.87967 | 9536 ft | 289 kts | 307° |
| 2026-04-18 05:46 | 23.12137 | -109.89632 | 10126 ft | 291 kts | 307° |
| 2026-04-18 05:46 | 23.13702 | -109.91136 | 10315 ft | 314 kts | 322° |
| 2026-04-18 05:46 | 23.15608 | -109.92421 | 10512 ft | 330 kts | 325° |
| 2026-04-18 05:46 | 23.17637 | -109.93716 | 10679 ft | 346 kts | 326° |
| 2026-04-18 05:47 | 23.19754 | -109.95066 | 10849 ft | 360 kts | 326° |
| 2026-04-18 05:47 | 23.21960 | -109.96491 | 10945 ft | 376 kts | 326° |
| 2026-04-18 05:47 | 23.24252 | -109.97973 | 11104 ft | 386 kts | 326° |
| 2026-04-18 05:47 | 23.26541 | -109.99513 | 11504 ft | 390 kts | 325° |
| 2026-04-18 05:48 | 23.28881 | -110.01057 | 11873 ft | 395 kts | 325° |
| 2026-04-18 05:48 | 23.31189 | -110.02611 | 12356 ft | 396 kts | 325° |
| 2026-04-18 05:48 | 23.33560 | -110.04157 | 12803 ft | 399 kts | 325° |
| 2026-04-18 05:48 | 23.35949 | -110.05717 | 13224 ft | 402 kts | 325° |
| 2026-04-18 05:49 | 23.38348 | -110.07295 | 13675 ft | 404 kts | 324° |
| 2026-04-18 05:49 | 23.40753 | -110.08888 | 14097 ft | 406 kts | 324° |
| 2026-04-18 05:49 | 23.43168 | -110.10495 | 14518 ft | 408 kts | 324° |
| 2026-04-18 05:49 | 23.45593 | -110.12112 | 14947 ft | 410 kts | 324° |
| 2026-04-18 05:50 | 23.48032 | -110.13739 | 15352 ft | 412 kts | 324° |
| 2026-04-18 05:50 | 23.50484 | -110.15375 | 15754 ft | 415 kts | 324° |
| 2026-04-18 05:50 | 23.52950 | -110.17022 | 16171 ft | 416 kts | 323° |
| 2026-04-18 05:50 | 23.55261 | -110.18891 | 16540 ft | 413 kts | 313° |
| 2026-04-18 05:51 | 23.57303 | -110.21087 | 16952 ft | 412 kts | 309° |
| 2026-04-18 05:51 | 23.59298 | -110.23339 | 17359 ft | 413 kts | 309° |
| 2026-04-18 05:51 | 23.61300 | -110.25603 | 17716 ft | 416 kts | 309° |
| 2026-04-18 05:51 | 23.63325 | -110.27867 | 18079 ft | 418 kts | 309° |
| 2026-04-18 05:52 | 23.65374 | -110.30128 | 18458 ft | 420 kts | 310° |
| 2026-04-18 05:52 | 23.67441 | -110.32389 | 18781 ft | 422 kts | 310° |
| 2026-04-18 05:52 | 23.69522 | -110.34653 | 19097 ft | 423 kts | 310° |
| 2026-04-18 05:52 | 23.71613 | -110.36924 | 19411 ft | 425 kts | 310° |
| 2026-04-18 05:53 | 23.73714 | -110.39204 | 19704 ft | 427 kts | 310° |
| 2026-04-18 05:53 | 23.75826 | -110.41498 | 20007 ft | 429 kts | 310° |
| 2026-04-18 05:53 | 23.77945 | -110.43802 | 20309 ft | 431 kts | 310° |
| 2026-04-18 05:53 | 23.80070 | -110.46114 | 20603 ft | 432 kts | 310° |
| 2026-04-18 05:54 | 23.82205 | -110.48439 | 20900 ft | 434 kts | 310° |
| 2026-04-18 05:54 | 23.84346 | -110.50770 | 21177 ft | 436 kts | 310° |
| 2026-04-18 05:54 | 23.86497 | -110.53114 | 21448 ft | 438 kts | 310° |
| 2026-04-18 05:54 | 23.88655 | -110.55467 | 21720 ft | 439 kts | 310° |
| 2026-04-18 05:55 | 23.90829 | -110.57765 | 22027 ft | 442 kts | 313° |
| 2026-04-18 05:55 | 23.93141 | -110.59988 | 22339 ft | 444 kts | 314° |
| 2026-04-18 05:55 | 23.95543 | -110.62192 | 22606 ft | 446 kts | 315° |
| 2026-04-18 05:55 | 23.96318 | -110.62895 | 22672 ft | 447 kts | 315° |
| 2026-04-18 05:56 | 23.98104 | -110.64510 | 22848 ft | 448 kts | 315° |
| 2026-04-18 05:56 | 24.00510 | -110.66691 | 23078 ft | 450 kts | 315° |
| 2026-04-18 05:56 | 24.02918 | -110.68890 | 23328 ft | 451 kts | 315° |
| 2026-04-18 05:56 | 24.05323 | -110.71102 | 23576 ft | 452 kts | 314° |
| 2026-04-18 05:57 | 24.10140 | -110.75568 | 23968 ft | 455 kts | 314° |
| 2026-04-18 05:57 | 24.12555 | -110.77816 | 24160 ft | 457 kts | 314° |
| 2026-04-18 05:57 | 24.14977 | -110.80074 | 24347 ft | 458 kts | 314° |
| 2026-04-18 05:58 | 24.17405 | -110.82340 | 24550 ft | 459 kts | 314° |
| 2026-04-18 05:58 | 24.19838 | -110.84609 | 24803 ft | 459 kts | 314° |
| 2026-04-18 05:58 | 24.22272 | -110.86880 | 24994 ft | 460 kts | 314° |
| 2026-04-18 05:58 | 24.24713 | -110.89159 | 25166 ft | 462 kts | 314° |
| 2026-04-18 05:59 | 24.27165 | -110.91449 | 25327 ft | 464 kts | 314° |
| 2026-04-18 05:59 | 24.29622 | -110.93746 | 25485 ft | 466 kts | 314° |
| 2026-04-18 05:59 | 24.32090 | -110.96054 | 25658 ft | 467 kts | 314° |
| 2026-04-18 05:59 | 24.34564 | -110.98368 | 25839 ft | 468 kts | 314° |
| 2026-04-18 06:00 | 24.37045 | -111.00690 | 26024 ft | 470 kts | 314° |
| 2026-04-18 06:00 | 24.39536 | -111.03023 | 26203 ft | 471 kts | 313° |
| 2026-04-18 06:00 | 24.42029 | -111.05358 | 26377 ft | 472 kts | 313° |
| 2026-04-18 06:00 | 24.44531 | -111.07704 | 26587 ft | 474 kts | 313° |
| 2026-04-18 06:01 | 24.47038 | -111.10054 | 26801 ft | 474 kts | 313° |
| 2026-04-18 06:01 | 24.49545 | -111.12406 | 27047 ft | 474 kts | 313° |
| 2026-04-18 06:01 | 24.52050 | -111.14758 | 27338 ft | 473 kts | 313° |
| 2026-04-18 06:01 | 24.54547 | -111.17102 | 27656 ft | 472 kts | 313° |
| 2026-04-18 06:02 | 24.57038 | -111.19442 | 27955 ft | 471 kts | 313° |
| 2026-04-18 06:02 | 24.59527 | -111.21783 | 28229 ft | 471 kts | 313° |
| 2026-04-18 06:02 | 24.62017 | -111.24127 | 28509 ft | 471 kts | 313° |
| 2026-04-18 06:02 | 24.64507 | -111.26471 | 28818 ft | 471 kts | 313° |
| 2026-04-18 06:03 | 24.66994 | -111.28815 | 29150 ft | 471 kts | 313° |
| 2026-04-18 06:03 | 24.69443 | -111.31123 | 29556 ft | 469 kts | 312° |
| 2026-04-18 06:03 | 24.71909 | -111.33446 | 30061 ft | 465 kts | 312° |
| 2026-04-18 06:03 | 24.74361 | -111.35757 | 30399 ft | 464 kts | 312° |
| 2026-04-18 06:04 | 24.76812 | -111.38073 | 30650 ft | 465 kts | 311° |
| 2026-04-18 06:04 | 24.79267 | -111.40394 | 30894 ft | 466 kts | 311° |
| 2026-04-18 06:04 | 24.81729 | -111.42724 | 31177 ft | 466 kts | 311° |
| 2026-04-18 06:04 | 24.84187 | -111.45048 | 31492 ft | 465 kts | 311° |
| 2026-04-18 06:05 | 24.86640 | -111.47369 | 31793 ft | 465 kts | 311° |
| 2026-04-18 06:05 | 24.89095 | -111.49693 | 32058 ft | 465 kts | 311° |
| 2026-04-18 06:05 | 24.91550 | -111.52018 | 32321 ft | 466 kts | 311° |
| 2026-04-18 06:05 | 24.94004 | -111.54343 | 32600 ft | 465 kts | 311° |
| 2026-04-18 06:06 | 24.96452 | -111.56664 | 32997 ft | 462 kts | 310° |
| 2026-04-18 06:06 | 24.98886 | -111.58970 | 33333 ft | 461 kts | 310° |
| 2026-04-18 06:06 | 25.01318 | -111.61279 | 33544 ft | 462 kts | 310° |
| 2026-04-18 06:06 | 25.03753 | -111.63595 | 33735 ft | 463 kts | 310° |
| 2026-04-18 06:07 | 25.06193 | -111.65915 | 33987 ft | 463 kts | 310° |
| 2026-04-18 06:07 | 25.11084 | -111.70569 | 34023 ft | 464 kts | 310° |
| 2026-04-18 06:08 | 25.15959 | -111.75207 | 34017 ft | 461 kts | 310° |
| 2026-04-18 06:08 | 25.20805 | -111.79826 | 34059 ft | 459 kts | 310° |
| 2026-04-18 06:09 | 25.25635 | -111.84436 | 34027 ft | 458 kts | 310° |
| 2026-04-18 06:09 | 25.30574 | -111.88834 | 34011 ft | 467 kts | 319° |
| 2026-04-18 06:10 | 25.36525 | -111.91986 | 34025 ft | 478 kts | 328° |
| 2026-04-18 06:10 | 25.42663 | -111.94811 | 34024 ft | 478 kts | 328° |
| 2026-04-18 06:11 | 25.48786 | -111.97657 | 34031 ft | 478 kts | 328° |
| 2026-04-18 06:11 | 25.54896 | -112.00550 | 34029 ft | 477 kts | 328° |
| 2026-04-18 06:12 | 25.60998 | -112.03464 | 34020 ft | 478 kts | 327° |
| 2026-04-18 06:12 | 25.67107 | -112.06387 | 34018 ft | 478 kts | 327° |
| 2026-04-18 06:13 | 25.73215 | -112.09312 | 34050 ft | 478 kts | 327° |
| 2026-04-18 06:13 | 25.79329 | -112.12242 | 34023 ft | 479 kts | 327° |
| 2026-04-18 06:14 | 25.85435 | -112.15170 | 34024 ft | 477 kts | 328° |
| 2026-04-18 06:14 | 25.91520 | -112.18089 | 34013 ft | 475 kts | 328° |
| 2026-04-18 06:15 | 25.97578 | -112.21000 | 34010 ft | 473 kts | 328° |
| 2026-04-18 06:15 | 26.02595 | -112.23414 | 34013 ft | 472 kts | 328° |
| 2026-04-18 06:16 | 26.08607 | -112.26310 | 34017 ft | 471 kts | 328° |
| 2026-04-18 06:16 | 26.14610 | -112.29206 | 34015 ft | 470 kts | 328° |
| 2026-04-18 06:17 | 26.20608 | -112.32103 | 34021 ft | 470 kts | 328° |
| 2026-04-18 06:17 | 26.26608 | -112.35004 | 34040 ft | 470 kts | 328° |
| 2026-04-18 06:18 | 26.32621 | -112.37914 | 34019 ft | 471 kts | 328° |
| 2026-04-18 06:18 | 26.38632 | -112.40826 | 34019 ft | 471 kts | 328° |
| 2026-04-18 06:19 | 26.44646 | -112.43741 | 34021 ft | 471 kts | 328° |
| 2026-04-18 06:19 | 26.50611 | -112.46642 | 34028 ft | 471 kts | 328° |
| 2026-04-18 06:20 | 26.56617 | -112.49561 | 34018 ft | 471 kts | 328° |
| 2026-04-18 06:20 | 26.62617 | -112.52478 | 34015 ft | 470 kts | 328° |
| 2026-04-18 06:21 | 26.68608 | -112.55394 | 34008 ft | 469 kts | 328° |
| 2026-04-18 06:21 | 26.71274 | -112.56689 | 33989 ft | 457 kts | 327° |
| 2026-04-18 06:21 | 26.74139 | -112.58073 | 33996 ft | 440 kts | 327° |
| 2026-04-18 06:21 | 26.76901 | -112.59406 | 33987 ft | 424 kts | 327° |
| 2026-04-18 06:22 | 26.79558 | -112.60692 | 34018 ft | 408 kts | 326° |
| 2026-04-18 06:22 | 26.82113 | -112.61934 | 33994 ft | 393 kts | 326° |
| 2026-04-18 06:22 | 26.84565 | -112.63129 | 33995 ft | 377 kts | 325° |
| 2026-04-18 06:22 | 26.86921 | -112.64277 | 33966 ft | 360 kts | 324° |
| 2026-04-18 06:23 | 26.89182 | -112.65357 | 33821 ft | 351 kts | 326° |
| 2026-04-18 06:23 | 26.91471 | -112.66386 | 32964 ft | 360 kts | 326° |
| 2026-04-18 06:23 | 26.93812 | -112.67517 | 32013 ft | 378 kts | 330° |
| 2026-04-18 06:23 | 26.96361 | -112.68474 | 31617 ft | 386 kts | 332° |
| 2026-04-18 06:24 | 26.98877 | -112.69400 | 31734 ft | 380 kts | 333° |
| 2026-04-18 06:24 | 27.01369 | -112.70365 | 31550 ft | 374 kts | 326° |
| 2026-04-18 06:24 | 27.03672 | -112.71634 | 31688 ft | 366 kts | 321° |
| 2026-04-18 06:24 | 27.05895 | -112.72966 | 31965 ft | 361 kts | 321° |
| 2026-04-18 06:25 | 27.08110 | -112.74271 | 31945 ft | 369 kts | 321° |
| 2026-04-18 06:25 | 27.12759 | -112.76919 | 31993 ft | 381 kts | 322° |
| 2026-04-18 06:26 | 27.17654 | -112.79461 | 32183 ft | 391 kts | 326° |
| 2026-04-18 06:26 | 27.22730 | -112.81954 | 32080 ft | 406 kts | 326° |
| 2026-04-18 06:27 | 27.27941 | -112.84625 | 32111 ft | 415 kts | 325° |
| 2026-04-18 06:27 | 27.33275 | -112.87363 | 32146 ft | 427 kts | 326° |
| 2026-04-18 06:28 | 27.38820 | -112.90089 | 32054 ft | 440 kts | 328° |
| 2026-04-18 06:28 | 27.41612 | -112.91471 | 32296 ft | 439 kts | 327° |
| 2026-04-18 06:28 | 27.44445 | -112.92855 | 32149 ft | 448 kts | 328° |
| 2026-04-18 06:29 | 27.50220 | -112.95601 | 32432 ft | 450 kts | 329° |
| 2026-04-18 06:29 | 27.53074 | -112.96923 | 33024 ft | 438 kts | 328° |
| 2026-04-18 06:29 | 27.55877 | -112.98271 | 33266 ft | 440 kts | 328° |
| 2026-04-18 06:30 | 27.61529 | -113.01087 | 33414 ft | 449 kts | 327° |
| 2026-04-18 06:30 | 27.67316 | -113.03984 | 33522 ft | 460 kts | 328° |
| 2026-04-18 06:31 | 27.73213 | -113.06926 | 33826 ft | 463 kts | 327° |
| 2026-04-18 06:31 | 27.76123 | -113.08442 | 34032 ft | 462 kts | 327° |
| 2026-04-18 06:31 | 27.79072 | -113.09931 | 34019 ft | 465 kts | 327° |
| 2026-04-18 06:32 | 27.85010 | -113.12862 | 34020 ft | 463 kts | 330° |
| 2026-04-18 06:32 | 27.90871 | -113.15729 | 34018 ft | 455 kts | 329° |
| 2026-04-18 06:33 | 27.96599 | -113.18568 | 34012 ft | 451 kts | 329° |
| 2026-04-18 06:33 | 28.02424 | -113.21486 | 34019 ft | 458 kts | 329° |
| 2026-04-18 06:34 | 28.08242 | -113.24407 | 34032 ft | 462 kts | 330° |
| 2026-04-18 06:34 | 28.14114 | -113.27350 | 34025 ft | 461 kts | 330° |
| 2026-04-18 06:35 | 28.19981 | -113.30293 | 34016 ft | 460 kts | 330° |
| 2026-04-18 06:35 | 28.25824 | -113.33228 | 34010 ft | 459 kts | 330° |
| 2026-04-18 06:36 | 28.31649 | -113.36160 | 34019 ft | 457 kts | 330° |
| 2026-04-18 06:36 | 28.37454 | -113.39084 | 34019 ft | 456 kts | 330° |
| 2026-04-18 06:37 | 28.43242 | -113.42004 | 34007 ft | 454 kts | 330° |
| 2026-04-18 06:37 | 28.49004 | -113.44917 | 33986 ft | 451 kts | 331° |
| 2026-04-18 06:38 | 28.54726 | -113.47811 | 34010 ft | 450 kts | 331° |
| 2026-04-18 06:38 | 28.60461 | -113.50712 | 34014 ft | 452 kts | 331° |
| 2026-04-18 06:39 | 28.66210 | -113.53624 | 34002 ft | 452 kts | 330° |
| 2026-04-18 06:39 | 28.71956 | -113.56544 | 34011 ft | 453 kts | 330° |
| 2026-04-18 06:40 | 28.77722 | -113.59474 | 34008 ft | 455 kts | 331° |
| 2026-04-18 06:40 | 28.83517 | -113.62421 | 34026 ft | 457 kts | 331° |
| 2026-04-18 06:41 | 28.89332 | -113.65385 | 34019 ft | 458 kts | 332° |
| 2026-04-18 06:41 | 28.95146 | -113.68350 | 34018 ft | 457 kts | 331° |
| 2026-04-18 06:42 | 29.00953 | -113.71314 | 34012 ft | 457 kts | 331° |
| 2026-04-18 06:42 | 29.06755 | -113.74281 | 34022 ft | 456 kts | 332° |
| 2026-04-18 06:43 | 29.12539 | -113.77241 | 34009 ft | 454 kts | 332° |
| 2026-04-18 06:43 | 29.18293 | -113.80189 | 34030 ft | 452 kts | 332° |
| 2026-04-18 06:44 | 29.24018 | -113.83126 | 34010 ft | 450 kts | 332° |
| 2026-04-18 06:44 | 29.29723 | -113.86058 | 34012 ft | 449 kts | 332° |
| 2026-04-18 06:45 | 29.35405 | -113.88979 | 34022 ft | 446 kts | 332° |
| 2026-04-18 06:45 | 29.41066 | -113.91896 | 34016 ft | 446 kts | 332° |
| 2026-04-18 06:46 | 29.46725 | -113.94817 | 34005 ft | 447 kts | 332° |
| 2026-04-18 06:46 | 29.52399 | -113.97747 | 33999 ft | 448 kts | 332° |
| 2026-04-18 06:47 | 29.58083 | -114.00685 | 34003 ft | 448 kts | 332° |
| 2026-04-18 06:47 | 29.63779 | -114.03632 | 33996 ft | 449 kts | 332° |
| 2026-04-18 06:48 | 29.69480 | -114.06586 | 33986 ft | 450 kts | 332° |
| 2026-04-18 06:48 | 29.75182 | -114.09545 | 33987 ft | 450 kts | 332° |
| 2026-04-18 06:49 | 29.80884 | -114.12507 | 33983 ft | 450 kts | 332° |
| 2026-04-18 06:49 | 29.86588 | -114.15474 | 33977 ft | 450 kts | 332° |
| 2026-04-18 06:50 | 29.92281 | -114.18440 | 33977 ft | 449 kts | 332° |
| 2026-04-18 06:50 | 29.97972 | -114.21407 | 33972 ft | 448 kts | 332° |
| 2026-04-18 06:51 | 30.03653 | -114.24374 | 33988 ft | 448 kts | 332° |
| 2026-04-18 06:51 | 30.09329 | -114.27341 | 33980 ft | 448 kts | 332° |
| 2026-04-18 06:52 | 30.15002 | -114.30310 | 33978 ft | 447 kts | 332° |
| 2026-04-18 06:52 | 30.20664 | -114.33278 | 33974 ft | 447 kts | 332° |
| 2026-04-18 06:53 | 30.26324 | -114.36249 | 33980 ft | 447 kts | 332° |
| 2026-04-18 06:53 | 30.31981 | -114.39222 | 33980 ft | 447 kts | 332° |
| 2026-04-18 06:54 | 30.37636 | -114.42198 | 33974 ft | 446 kts | 332° |
| 2026-04-18 06:54 | 30.43288 | -114.45175 | 33969 ft | 446 kts | 332° |
| 2026-04-18 06:55 | 30.48937 | -114.48155 | 33991 ft | 446 kts | 332° |
| 2026-04-18 06:55 | 30.54586 | -114.51138 | 33980 ft | 446 kts | 332° |
| 2026-04-18 06:56 | 30.60234 | -114.54125 | 33979 ft | 446 kts | 332° |
| 2026-04-18 06:56 | 30.65880 | -114.57115 | 33988 ft | 446 kts | 332° |
| 2026-04-18 06:57 | 30.71526 | -114.60108 | 33991 ft | 446 kts | 332° |
| 2026-04-18 06:57 | 30.79990 | -114.64603 | 33992 ft | 446 kts | 332° |
| 2026-04-18 06:58 | 30.85635 | -114.67606 | 33988 ft | 446 kts | 332° |
| 2026-04-18 06:58 | 30.91279 | -114.70612 | 33981 ft | 446 kts | 332° |
| 2026-04-18 06:59 | 30.96921 | -114.73621 | 33982 ft | 446 kts | 332° |
| 2026-04-18 06:59 | 31.02562 | -114.76633 | 33996 ft | 446 kts | 332° |
| 2026-04-18 07:00 | 31.07250 | -114.79140 | 34002 ft | 446 kts | 332° |
| 2026-04-18 07:00 | 31.12891 | -114.82160 | 33989 ft | 446 kts | 332° |
| 2026-04-18 07:01 | 31.18532 | -114.85183 | 33999 ft | 446 kts | 332° |
| 2026-04-18 07:01 | 31.24175 | -114.88212 | 33991 ft | 447 kts | 332° |
| 2026-04-18 07:02 | 31.29822 | -114.91247 | 33991 ft | 447 kts | 332° |
| 2026-04-18 07:02 | 31.35470 | -114.94286 | 33988 ft | 447 kts | 332° |
| 2026-04-18 07:03 | 31.41121 | -114.97331 | 33998 ft | 447 kts | 332° |
| 2026-04-18 07:03 | 31.46771 | -115.00380 | 33981 ft | 447 kts | 332° |
| 2026-04-18 07:04 | 31.52427 | -115.03435 | 33990 ft | 447 kts | 332° |
| 2026-04-18 07:04 | 31.58081 | -115.06494 | 33989 ft | 447 kts | 332° |
| 2026-04-18 07:05 | 31.63734 | -115.09556 | 34004 ft | 448 kts | 332° |
| 2026-04-18 07:05 | 31.69389 | -115.12624 | 34000 ft | 448 kts | 332° |
| 2026-04-18 07:06 | 31.75048 | -115.15698 | 33995 ft | 448 kts | 332° |
| 2026-04-18 07:06 | 31.80704 | -115.18775 | 33996 ft | 448 kts | 332° |
| 2026-04-18 07:07 | 31.86361 | -115.21856 | 33998 ft | 448 kts | 333° |
| 2026-04-18 07:07 | 31.92020 | -115.24942 | 33991 ft | 448 kts | 332° |
| 2026-04-18 07:08 | 31.97675 | -115.28031 | 33997 ft | 448 kts | 332° |
| 2026-04-18 07:08 | 32.03321 | -115.31119 | 33999 ft | 447 kts | 332° |
| 2026-04-18 07:09 | 32.08970 | -115.34213 | 34007 ft | 448 kts | 333° |
| 2026-04-18 07:09 | 32.14622 | -115.37312 | 33990 ft | 448 kts | 333° |
| 2026-04-18 07:10 | 32.20268 | -115.40413 | 34010 ft | 447 kts | 333° |
| 2026-04-18 07:10 | 32.25909 | -115.43515 | 33993 ft | 447 kts | 333° |
| 2026-04-18 07:11 | 32.31542 | -115.46617 | 34006 ft | 446 kts | 333° |
| 2026-04-18 07:11 | 32.37170 | -115.49721 | 33992 ft | 447 kts | 333° |
| 2026-04-18 07:12 | 32.42802 | -115.52834 | 34005 ft | 447 kts | 333° |
| 2026-04-18 07:12 | 32.48435 | -115.55947 | 34003 ft | 447 kts | 333° |
| 2026-04-18 07:13 | 32.54066 | -115.59065 | 34021 ft | 447 kts | 333° |
| 2026-04-18 07:13 | 32.59694 | -115.62186 | 34013 ft | 447 kts | 333° |
| 2026-04-18 07:14 | 32.64915 | -115.66061 | 34033 ft | 442 kts | 316° |
| 2026-04-18 07:14 | 32.68788 | -115.71667 | 34029 ft | 440 kts | 301° |
| 2026-04-18 07:15 | 32.71960 | -115.77874 | 34039 ft | 440 kts | 301° |
| 2026-04-18 07:15 | 32.75162 | -115.84083 | 34027 ft | 441 kts | 301° |
| 2026-04-18 07:16 | 32.78401 | -115.90275 | 34032 ft | 442 kts | 301° |
| 2026-04-18 07:16 | 32.81633 | -115.96489 | 34030 ft | 442 kts | 301° |
| 2026-04-18 07:17 | 32.84782 | -116.02765 | 34043 ft | 442 kts | 300° |
| 2026-04-18 07:17 | 32.87918 | -116.09059 | 34048 ft | 442 kts | 300° |
| 2026-04-18 07:18 | 32.91063 | -116.15356 | 34051 ft | 443 kts | 301° |
| 2026-04-18 07:18 | 32.94212 | -116.21659 | 34048 ft | 443 kts | 301° |
| 2026-04-18 07:19 | 32.97356 | -116.27962 | 34048 ft | 443 kts | 301° |
| 2026-04-18 07:19 | 33.00496 | -116.34269 | 34057 ft | 443 kts | 300° |
| 2026-04-18 07:20 | 33.03577 | -116.40465 | 34038 ft | 420 kts | 300° |
| 2026-04-18 07:20 | 33.05022 | -116.43411 | 34039 ft | 404 kts | 298° |
| 2026-04-18 07:20 | 33.06228 | -116.46361 | 34045 ft | 388 kts | 294° |
| 2026-04-18 07:21 | 33.07276 | -116.49261 | 34037 ft | 374 kts | 293° |
| 2026-04-18 07:21 | 33.08271 | -116.52072 | 34052 ft | 364 kts | 293° |
| 2026-04-18 07:21 | 33.10304 | -116.57676 | 34072 ft | 374 kts | 294° |
| 2026-04-18 07:22 | 33.12448 | -116.63421 | 34080 ft | 385 kts | 294° |
| 2026-04-18 07:22 | 33.14016 | -116.69580 | 33626 ft | 395 kts | 280° |
| 2026-04-18 07:23 | 33.14466 | -116.72828 | 32804 ft | 401 kts | 279° |
| 2026-04-18 07:23 | 33.14911 | -116.76142 | 32387 ft | 407 kts | 279° |
| 2026-04-18 07:23 | 33.15850 | -116.82947 | 32185 ft | 424 kts | 280° |
| 2026-04-18 07:24 | 33.16860 | -116.89979 | 32056 ft | 432 kts | 280° |
| 2026-04-18 07:24 | 33.17883 | -116.97020 | 32041 ft | 430 kts | 281° |
| 2026-04-18 07:25 | 33.18903 | -117.04048 | 32039 ft | 430 kts | 281° |
| 2026-04-18 07:25 | 33.19574 | -117.11044 | 31468 ft | 423 kts | 262° |
| 2026-04-18 07:26 | 33.18692 | -117.14399 | 30658 ft | 430 kts | 241° |
| 2026-04-18 07:26 | 33.16804 | -117.17204 | 29632 ft | 441 kts | 220° |
| 2026-04-18 07:26 | 33.14127 | -117.19049 | 28536 ft | 452 kts | 199° |
| 2026-04-18 07:26 | 33.11020 | -117.19694 | 27542 ft | 459 kts | 181° |
| 2026-04-18 07:27 | 33.07846 | -117.19213 | 26595 ft | 464 kts | 162° |
| 2026-04-18 07:27 | 33.04911 | -117.17603 | 25689 ft | 467 kts | 146° |
| 2026-04-18 07:27 | 33.02563 | -117.14956 | 25031 ft | 465 kts | 126° |
| 2026-04-18 07:27 | 33.00857 | -117.11722 | 24539 ft | 458 kts | 118° |
| 2026-04-18 07:28 | 32.99473 | -117.08338 | 23952 ft | 453 kts | 108° |
| 2026-04-18 07:28 | 32.98795 | -117.04691 | 23252 ft | 450 kts | 97° |
| 2026-04-18 07:28 | 32.98483 | -117.00997 | 22585 ft | 446 kts | 94° |
| 2026-04-18 07:28 | 32.98260 | -116.97335 | 21958 ft | 441 kts | 93° |
| 2026-04-18 07:29 | 32.98063 | -116.93707 | 21342 ft | 437 kts | 93° |
| 2026-04-18 07:29 | 32.98002 | -116.90112 | 20702 ft | 433 kts | 83° |
| 2026-04-18 07:29 | 32.98847 | -116.86715 | 20061 ft | 428 kts | 60° |
| 2026-04-18 07:29 | 33.00666 | -116.83974 | 19478 ft | 420 kts | 38° |
| 2026-04-18 07:30 | 33.03145 | -116.82219 | 18930 ft | 413 kts | 21° |
| 2026-04-18 07:30 | 33.05838 | -116.81074 | 18352 ft | 409 kts | 17° |
| 2026-04-18 07:30 | 33.08553 | -116.80079 | 17684 ft | 407 kts | 15° |
| 2026-04-18 07:30 | 33.11292 | -116.79354 | 17143 ft | 400 kts | 1° |
| 2026-04-18 07:31 | 33.13969 | -116.79863 | 16915 ft | 387 kts | 337° |
| 2026-04-18 07:31 | 33.16266 | -116.81482 | 16690 ft | 387 kts | 320° |
| 2026-04-18 07:31 | 33.18136 | -116.83832 | 16453 ft | 396 kts | 306° |
| 2026-04-18 07:31 | 33.19489 | -116.86694 | 16194 ft | 396 kts | 290° |
| 2026-04-18 07:32 | 33.20083 | -116.89874 | 15937 ft | 392 kts | 276° |
| 2026-04-18 07:32 | 33.20330 | -116.93112 | 15702 ft | 391 kts | 275° |
| 2026-04-18 07:32 | 33.20525 | -116.96347 | 15454 ft | 390 kts | 274° |
| 2026-04-18 07:32 | 33.20712 | -116.99575 | 15211 ft | 390 kts | 274° |
| 2026-04-18 07:33 | 33.20905 | -117.02800 | 14945 ft | 390 kts | 274° |
| 2026-04-18 07:33 | 33.21126 | -117.06028 | 14647 ft | 390 kts | 275° |
| 2026-04-18 07:33 | 33.21341 | -117.09245 | 14490 ft | 387 kts | 275° |
| 2026-04-18 07:33 | 33.21541 | -117.12423 | 14472 ft | 380 kts | 274° |
| 2026-04-18 07:34 | 33.21730 | -117.15588 | 14484 ft | 384 kts | 274° |
| 2026-04-18 07:34 | 33.21927 | -117.18797 | 14247 ft | 390 kts | 275° |
| 2026-04-18 07:34 | 33.22146 | -117.22025 | 13889 ft | 387 kts | 275° |
| 2026-04-18 07:34 | 33.22415 | -117.25206 | 13525 ft | 384 kts | 276° |
| 2026-04-18 07:35 | 33.22663 | -117.28355 | 13277 ft | 378 kts | 275° |
| 2026-04-18 07:35 | 33.22884 | -117.31468 | 13019 ft | 375 kts | 275° |
| 2026-04-18 07:35 | 33.23214 | -117.34548 | 12764 ft | 373 kts | 280° |
| 2026-04-18 07:35 | 33.23700 | -117.37586 | 12514 ft | 372 kts | 281° |
| 2026-04-18 07:36 | 33.24218 | -117.40608 | 12238 ft | 371 kts | 281° |
| 2026-04-18 07:36 | 33.24724 | -117.43636 | 12078 ft | 371 kts | 281° |
| 2026-04-18 07:36 | 33.25209 | -117.46671 | 12044 ft | 373 kts | 281° |
| 2026-04-18 07:36 | 33.25685 | -117.49724 | 12025 ft | 374 kts | 280° |
| 2026-04-18 07:37 | 33.26199 | -117.52768 | 12015 ft | 374 kts | 286° |
| 2026-04-18 07:37 | 33.27312 | -117.55567 | 11818 ft | 375 kts | 303° |
| 2026-04-18 07:37 | 33.28762 | -117.58142 | 11584 ft | 372 kts | 303° |
| 2026-04-18 07:37 | 33.30192 | -117.60710 | 11343 ft | 370 kts | 303° |
| 2026-04-18 07:38 | 33.31604 | -117.63276 | 11098 ft | 369 kts | 303° |
| 2026-04-18 07:38 | 33.33002 | -117.65845 | 10863 ft | 368 kts | 302° |
| 2026-04-18 07:38 | 33.34392 | -117.68415 | 10625 ft | 367 kts | 302° |
| 2026-04-18 07:38 | 33.35772 | -117.70981 | 10387 ft | 366 kts | 302° |
| 2026-04-18 07:39 | 33.37132 | -117.73512 | 10132 ft | 356 kts | 302° |
| 2026-04-18 07:39 | 33.38023 | -117.75174 | 9973 ft | 346 kts | 302° |
| 2026-04-18 07:39 | 33.39297 | -117.77553 | 9698 ft | 333 kts | 302° |
| 2026-04-18 07:39 | 33.40523 | -117.79844 | 9427 ft | 321 kts | 302° |
| 2026-04-18 07:40 | 33.41708 | -117.82057 | 9158 ft | 311 kts | 302° |
| 2026-04-18 07:40 | 33.42855 | -117.84200 | 8897 ft | 301 kts | 302° |
| 2026-04-18 07:40 | 33.43969 | -117.86280 | 8637 ft | 293 kts | 302° |
| 2026-04-18 07:40 | 33.45050 | -117.88303 | 8374 ft | 285 kts | 302° |
| 2026-04-18 07:41 | 33.46104 | -117.90274 | 8116 ft | 278 kts | 303° |
| 2026-04-18 07:41 | 33.47145 | -117.92190 | 7865 ft | 271 kts | 307° |
| 2026-04-18 07:41 | 33.48551 | -117.93617 | 7601 ft | 264 kts | 333° |
| 2026-04-18 07:41 | 33.50236 | -117.94464 | 7381 ft | 263 kts | 340° |
| 2026-04-18 07:42 | 33.51964 | -117.95194 | 7148 ft | 264 kts | 341° |
| 2026-04-18 07:42 | 33.53699 | -117.95916 | 7056 ft | 265 kts | 340° |
| 2026-04-18 07:42 | 33.55467 | -117.96661 | 7029 ft | 271 kts | 340° |
| 2026-04-18 07:42 | 33.57241 | -117.97420 | 7006 ft | 269 kts | 340° |
| 2026-04-18 07:43 | 33.58993 | -117.98178 | 6992 ft | 266 kts | 340° |
| 2026-04-18 07:43 | 33.60728 | -117.98933 | 7001 ft | 266 kts | 340° |
| 2026-04-18 07:43 | 33.62471 | -117.99689 | 7010 ft | 267 kts | 341° |
| 2026-04-18 07:43 | 33.64247 | -118.00364 | 7013 ft | 268 kts | 343° |
| 2026-04-18 07:44 | 33.66037 | -118.01001 | 7013 ft | 269 kts | 343° |
| 2026-04-18 07:44 | 33.67831 | -118.01645 | 7006 ft | 269 kts | 343° |
| 2026-04-18 07:44 | 33.69620 | -118.02293 | 7007 ft | 269 kts | 343° |
| 2026-04-18 07:44 | 33.71407 | -118.02943 | 7001 ft | 268 kts | 343° |
| 2026-04-18 07:45 | 33.73183 | -118.03591 | 6994 ft | 265 kts | 343° |
| 2026-04-18 07:45 | 33.74739 | -118.04160 | 6983 ft | 255 kts | 343° |
| 2026-04-18 07:45 | 33.76385 | -118.04762 | 6925 ft | 240 kts | 343° |
| 2026-04-18 07:45 | 33.77972 | -118.05343 | 6605 ft | 238 kts | 343° |
| 2026-04-18 07:46 | 33.79537 | -118.06005 | 6233 ft | 239 kts | 338° |
| 2026-04-18 07:46 | 33.81070 | -118.06759 | 5883 ft | 238 kts | 338° |
| 2026-04-18 07:46 | 33.82603 | -118.07520 | 5516 ft | 238 kts | 338° |
| 2026-04-18 07:46 | 33.84119 | -118.08256 | 5251 ft | 233 kts | 339° |
| 2026-04-18 07:47 | 33.85643 | -118.08971 | 4839 ft | 239 kts | 339° |
| 2026-04-18 07:47 | 33.87208 | -118.09628 | 4742 ft | 233 kts | 342° |
| 2026-04-18 07:47 | 33.88719 | -118.10213 | 4690 ft | 227 kts | 339° |
| 2026-04-18 07:47 | 33.90229 | -118.10896 | 4320 ft | 235 kts | 338° |
| 2026-04-18 07:48 | 33.91749 | -118.11606 | 4201 ft | 232 kts | 340° |
| 2026-04-18 07:48 | 33.93243 | -118.12224 | 4050 ft | 223 kts | 340° |
| 2026-04-18 07:48 | 33.94603 | -118.13057 | 3872 ft | 214 kts | 323° |
| 2026-04-18 07:48 | 33.95589 | -118.14345 | 3656 ft | 209 kts | 299° |
| 2026-04-18 07:49 | 33.95975 | -118.16058 | 3126 ft | 218 kts | 267° |
| 2026-04-18 07:49 | 33.95533 | -118.17718 | 3076 ft | 206 kts | 234° |
| 2026-04-18 07:49 | 33.94641 | -118.19093 | 3099 ft | 207 kts | 239° |
| 2026-04-18 07:49 | 33.94091 | -118.20696 | 3265 ft | 210 kts | 256° |
| 2026-04-18 07:50 | 33.93895 | -118.22439 | 3006 ft | 210 kts | 272° |
| 2026-04-18 07:50 | 33.94030 | -118.24184 | 2646 ft | 206 kts | 278° |
| 2026-04-18 07:50 | 33.94193 | -118.25849 | 2308 ft | 198 kts | 278° |
| 2026-04-18 07:50 | 33.94325 | -118.27485 | 1852 ft | 192 kts | 272° |
| 2026-04-18 07:51 | 33.94323 | -118.29028 | 1619 ft | 176 kts | 268° |
| 2026-04-18 07:51 | 33.94289 | -118.30430 | 1375 ft | 161 kts | 268° |
| 2026-04-18 07:51 | 33.94251 | -118.31773 | 1182 ft | 160 kts | 267° |
| 2026-04-18 07:51 | 33.94190 | -118.33100 | 985 ft | 157 kts | 265° |
| 2026-04-18 07:52 | 33.94100 | -118.34393 | 810 ft | 154 kts | 264° |
| 2026-04-18 07:52 | 33.93992 | -118.35680 | 604 ft | 155 kts | 263° |
| 2026-04-18 07:52 | 33.93866 | -118.36963 | 404 ft | 154 kts | 261° |
| 2026-04-18 07:52 | 33.93735 | -118.38250 | 206 ft | 156 kts | 263° |
| 2026-04-18 07:53 | 33.93600 | -118.39511 | 125 ft | 148 kts | 263° |
| 2026-04-18 07:53 | 33.93489 | -118.40640 | 125 ft | 120 kts | 264° |
| 2026-04-18 07:53 | 33.93416 | -118.41353 | 125 ft | 67 kts | 263° |
| 2026-04-18 07:53 | 33.93382 | -118.41697 | 123 ft | 27 kts | 266° |
| 2026-04-18 07:54 | 33.93383 | -118.41870 | 121 ft | 16 kts | 293° |
| 2026-04-18 07:54 | 33.93482 | -118.41907 | 123 ft | 15 kts | 355° |
| 2026-04-18 07:54 | 33.93551 | -118.41916 | 123 ft | 9 kts | 353° |
| 2026-04-18 07:54 | 33.93616 | -118.41924 | 122 ft | 9 kts | 354° |
| 2026-04-18 07:55 | 33.93676 | -118.41912 | 123 ft | 9 kts | 45° |
| 2026-04-18 07:55 | 33.93693 | -118.41841 | 125 ft | 9 kts | 84° |
| 2026-04-18 07:55 | 33.93700 | -118.41769 | 125 ft | 9 kts | 85° |
| 2026-04-18 07:55 | 33.93706 | -118.41690 | 125 ft | 13 kts | 83° |
| 2026-04-18 07:56 | 33.93717 | -118.41579 | 125 ft | 13 kts | 83° |
| 2026-04-18 07:56 | 33.93728 | -118.41472 | 123 ft | 13 kts | 82° |
| 2026-04-18 07:56 | 33.93740 | -118.41368 | 122 ft | 12 kts | 82° |
| 2026-04-18 07:56 | 33.93750 | -118.41268 | 125 ft | 11 kts | 84° |
| 2026-04-18 07:57 | 33.93762 | -118.41181 | 125 ft | 10 kts | 64° |
| 2026-04-18 07:57 | 33.93824 | -118.41158 | 122 ft | 10 kts | 351° |
| 2026-04-18 07:57 | 33.93900 | -118.41173 | 123 ft | 12 kts | 352° |
| 2026-04-18 07:57 | 33.93986 | -118.41184 | 122 ft | 12 kts | 354° |
| 2026-04-18 07:58 | 33.94152 | -118.41204 | 122 ft | 12 kts | 353° |
| 2026-04-18 07:58 | 33.94232 | -118.41216 | 123 ft | 11 kts | 352° |
| 2026-04-18 07:58 | 33.94309 | -118.41228 | 122 ft | 11 kts | 352° |
| 2026-04-18 07:59 | 33.94385 | -118.41240 | 122 ft | 11 kts | 354° |
| 2026-04-18 07:59 | 33.94458 | -118.41248 | 123 ft | 10 kts | 354° |
| 2026-04-18 07:59 | 33.94529 | -118.41256 | 122 ft | 10 kts | 354° |
| 2026-04-18 07:59 | 33.94599 | -118.41267 | 122 ft | 11 kts | 352° |
| 2026-04-18 08:00 | 33.94675 | -118.41266 | 123 ft | 11 kts | 23° |
| 2026-04-18 08:00 | 33.94713 | -118.41191 | 125 ft | 11 kts | 72° |
| 2026-04-18 08:00 | 33.94730 | -118.41104 | 123 ft | 11 kts | 82° |
| 2026-04-18 08:00 | 33.94741 | -118.41014 | 125 ft | 11 kts | 83° |
| 2026-04-18 08:01 | 33.94728 | -118.40926 | 121 ft | 11 kts | 140° |
| 2026-04-18 08:01 | 33.94661 | -118.40911 | 120 ft | 5 kts | 175° |
| 2026-04-18 08:01 | 33.94625 | -118.40906 | 123 ft | 5 kts | 171° |
| 2026-04-18 08:01 | 33.94595 | -118.40884 | 124 ft | 5 kts | 133° |
| 2026-04-18 08:02 | 33.94571 | -118.40852 | 121 ft | 5 kts | 133° |
| 2026-04-18 08:02 | 33.94548 | -118.40821 | 123 ft | 5 kts | 129° |
| 2026-04-18 08:02 | 33.94538 | -118.40782 | 125 ft | 5 kts | 90° |
| 2026-04-18 08:02 | 33.94538 | -118.40778 | 125 ft | 0 kts | 89° |